Latest Weather Observations for Kingscote

IDS60801

Issued at 10:01 am CST Tuesday 16 August 2022 (issued every 10 minutes, with the page automatically refreshed every 10 minutes)

About weather observations | Map of weather stations | Latest weather observations for SA | Other Formats
Station Details ID: 022841 Name: KINGSCOTE AERO Lat: -35.71 Lon: 137.52 Height: 6.23 m
Data from the previous 72 hours. | See also: Recent months at Kingscote
Date/Time
CST
Temp
°C
App
Temp
°C
Dew
Point
°C
Rel
Hum
%
Delta-T
°C
Wind Press
QNH
hPa
Press
MSL
hPa
Rain since
9am
mm
Dir  Spd
km/h
Gust
km/h
Spd
kts
Gust
kts
16/10:00am 14.2 10.5 9.4 73 2.4 S 19 24 10 13 1020.3 1020.3 0.0
16/09:30am 13.6 11.0 9.5 76 2.1 S 13 19 7 10 1020.0 1020.0 0.0
16/09:00am 12.7 11.0 9.7 82 1.5 S 9 13 5 7 1020.1 1020.1 1.2
16/08:30am 11.5 10.2 9.8 89 0.9 SSW 7 9 4 5 1019.9 1019.9 1.2
16/08:00am 9.6 9.3 8.8 95 0.4 CALM 0 0 0 0 1019.7 1019.7 1.2
16/07:30am 7.9 6.9 7.3 96 0.3 S 2 6 1 3 1019.4 1019.4 1.2
16/07:00am 7.4 5.5 6.7 95 0.3 SSW 6 7 3 4 1019.4 1019.4 1.2
16/06:30am 7.9 5.9 7.0 94 0.4 SSW 7 11 4 6 1018.9 1018.9 1.0
16/06:00am 7.3 4.8 6.6 95 0.3 W 9 11 5 6 1018.6 1018.6 1.0
16/05:30am 6.6 3.9 5.6 93 0.4 W 9 13 5 7 1018.2 1018.2 1.0
16/05:00am 6.8 3.8 6.1 95 0.3 W 11 13 6 7 1017.8 1017.8 1.0
16/04:30am 6.2 2.4 5.9 98 0.1 W 15 17 8 9 1017.5 1017.5 1.0
16/04:00am 5.4 2.5 4.8 96 0.3 WSW 9 11 5 6 1016.4 1016.4 1.0
16/03:30am 5.4 2.5 4.8 96 0.3 WSW 9 11 5 6 1016.0 1016.0 1.0
16/03:00am 5.5 2.3 4.9 96 0.3 WSW 11 11 6 6 1016.3 1016.3 1.0
16/02:30am 6.1 3.7 5.4 95 0.3 WSW 7 9 4 5 1016.2 1016.2 1.0
16/02:00am 6.7 4.1 6.0 95 0.3 WSW 9 13 5 7 1016.4 1016.4 1.0
16/01:30am 6.6 3.9 5.7 94 0.4 WSW 9 11 5 6 1016.4 1016.4 0.8
16/01:00am 7.1 3.7 6.0 93 0.5 WSW 13 15 7 8 1016.3 1016.3 0.8
16/12:30am 7.4 4.5 6.3 93 0.5 WSW 11 13 6 7 1016.1 1016.1 0.8
16/12:00am 7.4 4.1 6.2 92 0.5 WSW 13 13 7 7 1016.0 1016.0 0.8
 
Date/Time
CST
Temp
°C
App
Temp
°C
Dew
Point
°C
Rel
Hum
%
Delta-T
°C
Wind Press
QNH
hPa
Press
MSL
hPa
Rain since
9am
mm
Dir  Spd
km/h
Gust
km/h
Spd
kts
Gust
kts
15/11:30pm 8.0 4.8 6.8 92 0.6 WSW 13 15 7 8 1015.8 1015.8 0.8
15/11:00pm 7.8 4.6 6.7 93 0.5 WSW 13 15 7 8 1015.6 1015.6 0.8
15/10:30pm 7.8 4.9 6.7 93 0.5 WSW 11 13 6 7 1015.3 1015.3 0.8
15/10:00pm 8.2 5.0 7.0 92 0.6 SW 13 15 7 8 1015.1 1015.1 0.8
15/09:30pm 8.1 5.0 7.3 95 0.4 SW 13 15 7 8 1014.9 1014.9 0.8
15/09:00pm 7.7 5.2 6.6 93 0.5 SW 9 11 5 6 1014.5 1014.5 0.8
15/08:30pm 8.6 6.4 7.7 94 0.4 WSW 9 11 5 6 1014.1 1014.1 0.8
15/08:00pm 8.9 6.4 8.0 94 0.4 WSW 11 13 6 7 1013.9 1013.9 0.8
15/07:30pm 10.3 7.5 8.7 90 0.8 SW 13 17 7 9 1013.7 1013.7 0.8
15/07:00pm 11.1 8.5 9.5 90 0.8 SW 13 17 7 9 1013.5 1013.5 0.8
15/06:30pm 11.0 8.5 9.6 91 0.7 WSW 13 15 7 8 1013.1 1013.1 0.8
15/06:00pm 11.0 8.9 9.8 92 0.6 WSW 11 13 6 7 1012.5 1012.5 0.8
15/05:30pm 11.3 7.7 9.7 90 0.8 SW 19 24 10 13 1011.7 1011.7 0.8
15/05:00pm 11.7 8.5 9.9 89 0.9 WSW 17 24 9 13 1011.4 1011.4 0.6
15/04:30pm 12.4 9.6 10.1 86 1.2 SW 15 19 8 10 1011.0 1011.0 0.2
15/04:00pm 13.2 9.3 9.5 78 1.9 S 20 32 11 17 1010.6 1010.6 0.2
15/03:30pm 14.2 10.2 9.2 72 2.6 SW 20 28 11 15 1010.3 1010.3 0.2
15/03:00pm 14.0 9.1 8.6 70 2.7 SSW 24 39 13 21 1010.0 1010.0 0.2
15/02:30pm 14.7 9.9 8.9 68 3.0 SSW 24 32 13 17 1009.7 1009.7 0.2
15/02:00pm 14.8 10.9 9.6 71 2.7 SSW 20 28 11 15 1009.6 1009.6 0.2
15/01:30pm 15.0 11.0 9.1 68 3.0 SSW 20 28 11 15 1009.6 1009.6 0.2
15/01:00pm 15.2 11.2 8.4 64 3.4 SW 19 24 10 13 1009.8 1009.8 0.2
15/12:30pm 15.5 12.3 10.1 70 2.8 WSW 17 20 9 11 1010.1 1010.1 0.0
15/12:00pm 14.4 10.8 8.4 67 3.0 WSW 17 24 9 13 1010.4 1010.4 0.0
15/11:30am 14.3 11.8 9.7 74 2.4 SW 13 19 7 10 1010.5 1010.5 0.0
15/11:00am 14.2 11.8 10.0 76 2.2 SW 13 19 7 10 1010.4 1010.4 0.0
15/10:30am 14.2 11.9 10.6 79 1.9 W 13 17 7 9 1010.5 1010.5 0.0
15/10:00am 13.8 12.0 10.8 82 1.6 W 11 15 6 8 1010.6 1010.6 0.0
15/09:30am 12.2 10.6 10.1 87 1.1 W 9 13 5 7 1010.5 1010.5 0.0
15/09:00am 10.5 9.0 9.3 92 0.6 WNW 7 9 4 5 1010.5 1010.5 5.8
15/08:30am 9.8 8.4 9.0 95 0.4 NW 6 9 3 5 1010.4 1010.4 5.8
15/08:00am 8.6 8.2 8.3 98 0.1 CALM 0 0 0 0 1010.2 1010.2 5.8
15/07:30am 7.1 5.2 6.7 97 0.2 NW 6 7 3 4 1010.1 1010.1 5.8
15/07:00am 7.7 5.9 7.3 97 0.2 NW 6 7 3 4 1010.0 1010.0 5.8
15/06:30am 8.5 6.9 7.9 96 0.3 S 6 6 3 3 1010.0 1010.0 5.8
15/06:00am 8.6 7.4 8.0 96 0.3 SSW 4 7 2 4 1010.1 1010.1 5.8
15/05:30am 8.9 7.1 8.1 95 0.4 SW 7 9 4 5 1010.0 1010.0 5.8
15/05:00am 9.7 7.3 8.6 93 0.5 WSW 11 13 6 7 1009.9 1009.9 5.8
15/04:30am 9.7 8.2 9.1 96 0.3 WNW 7 11 4 6 1009.8 1009.8 5.8
15/04:00am 9.6 7.7 9.0 96 0.3 WNW 9 11 5 6 1009.9 1009.9 5.8
15/03:30am 9.4 9.1 8.8 96 0.3 CALM 0 0 0 0 1010.1 1010.1 5.8
15/03:00am 9.5 8.1 8.9 96 0.3 W 6 9 3 5 1010.3 1010.3 5.8
15/02:30am 9.8 7.9 8.9 94 0.4 NW 9 9 5 5 1010.6 1010.6 5.8
15/02:00am 10.0 7.7 9.1 94 0.4 WNW 11 11 6 6 1011.0 1011.0 5.8
15/01:30am 9.8 7.5 8.9 94 0.4 NW 11 13 6 7 1011.1 1011.1 5.8
15/01:00am 9.8 7.9 8.9 94 0.4 NW 9 11 5 6 1011.4 1011.4 5.8
15/12:30am 10.1 7.8 8.9 92 0.6 NW 11 13 6 7 1011.6 1011.6 5.8
15/12:00am 10.1 7.9 9.2 94 0.4 WNW 11 17 6 9 1012.0 1012.0 5.8
 
Date/Time
CST
Temp
°C
App
Temp
°C
Dew
Point
°C
Rel
Hum
%
Delta-T
°C
Wind Press
QNH
hPa
Press
MSL
hPa
Rain since
9am
mm
Dir  Spd
km/h
Gust
km/h
Spd
kts
Gust
kts
14/11:30pm 9.0 7.4 8.7 98 0.1 W 7 9 4 5 1012.4 1012.4 5.8
14/11:00pm 8.7 7.0 8.3 97 0.2 NW 7 7 4 4 1012.6 1012.6 5.8
14/10:30pm 9.3 9.0 8.8 97 0.2 CALM 0 0 0 0 1012.8 1012.8 5.8
14/10:00pm 9.6 8.1 9.0 96 0.3 NW 7 9 4 5 1013.0 1013.0 5.8
14/09:30pm 10.4 9.3 9.9 97 0.3 WNW 6 7 3 4 1013.0 1013.0 5.6
14/09:00pm 10.5 10.1 9.9 96 0.3 SW 2 6 1 3 1013.0 1013.0 5.6
14/08:30pm 10.7 9.4 9.9 95 0.4 SW 7 9 4 5 1013.2 1013.2 5.6
14/08:10pm 11.2 10.2 10.3 94 0.5 SSW 6 7 3 4 1013.3 1013.3 5.6
14/08:00pm 11.3 10.1 10.4 94 0.5 SW 7 13 4 7 1013.3 1013.3 5.6
14/07:53pm 11.3 9.0 10.5 95 0.4 W 13 15 7 8 1013.6 1013.6 5.4
14/07:30pm 11.4 10.3 10.8 96 0.3 NW 7 9 4 5 1013.4 1013.4 4.6
14/07:00pm 11.6 11.5 10.7 94 0.5 NE 2 6 1 3 1013.2 1013.2 4.6
14/06:40pm 11.7 11.6 10.8 94 0.5 NNW 2 6 1 3 1013.0 1013.0 4.6
14/06:30pm 11.7 11.2 10.6 93 0.6 NNW 4 7 2 4 1013.0 1013.0 4.0
14/06:26pm 11.7 10.8 10.6 93 0.6 NNW 6 9 3 5 1012.9 1012.9 3.8
14/06:19pm 11.8 10.9 10.7 93 0.6 NNW 6 7 3 4 1013.0 1013.0 2.8
14/06:04pm 12.0 10.9 10.6 91 0.7 N 7 17 4 9 1013.0 1013.0 2.6
14/06:00pm 12.1 10.6 10.7 91 0.7 N 9 17 5 9 1013.0 1013.0 1.8
14/05:30pm 12.5 11.0 10.7 89 0.9 ESE 9 11 5 6 1012.7 1012.7 0.8
14/05:00pm 12.9 11.5 11.0 88 1.0 SE 9 11 5 6 1012.8 1012.8 0.8
14/04:30pm 13.3 11.9 11.0 86 1.2 SSE 9 11 5 6 1013.0 1013.0 0.8
14/04:00pm 13.6 12.3 11.1 85 1.3 SW 9 13 5 7 1012.8 1012.8 0.8
14/03:30pm 13.1 11.5 11.5 90 0.8 SW 11 15 6 8 1013.0 1013.0 0.6
14/03:00pm 13.8 11.6 10.8 82 1.6 SW 13 15 7 8 1013.4 1013.4 0.2
14/02:30pm 15.0 12.6 10.0 72 2.6 WSW 13 20 7 11 1013.1 1013.1 0.2
14/02:00pm 15.2 12.8 10.2 72 2.6 WNW 13 17 7 9 1013.2 1013.2 0.2
14/01:30pm 15.9 13.6 8.9 63 3.6 WSW 11 22 6 12 1013.8 1013.8 0.2
14/01:00pm 15.7 13.9 9.4 66 3.3 WSW 9 13 5 7 1014.0 1014.0 0.2
14/12:30pm 14.6 12.6 8.8 68 2.9 SW 9 11 5 6 1014.5 1014.5 0.2
14/12:00pm 15.7 13.4 8.9 64 3.5 W 11 19 6 10 1014.9 1014.9 0.2
14/11:30am 15.0 12.8 9.4 69 2.9 SW 11 15 6 8 1015.2 1015.2 0.2
14/11:00am 14.6 12.8 10.8 78 2.0 SSW 11 15 6 8 1015.3 1015.3 0.2
14/10:30am 13.6 11.8 11.0 84 1.4 SW 11 13 6 7 1015.5 1015.5 0.2
14/10:00am 12.8 11.5 11.2 90 0.8 SW 9 13 5 7 1015.6 1015.6 0.2
14/09:30am 11.4 10.3 10.8 96 0.3 SSW 7 9 4 5 1015.7 1015.7 0.2
14/09:00am 10.1 8.3 9.3 95 0.4 SSW 9 13 5 7 1015.9 1015.9 0.4
14/08:30am 10.9 9.4 10.6 98 0.2 W 9 13 5 7 1015.7 1015.7 0.4
14/08:00am 6.5 4.5 6.2 98 0.1 WNW 6 9 3 5 1015.4 1015.4 0.4
14/07:30am 5.3 4.2 4.9 97 0.2 CALM 0 0 0 0 1015.4 1015.4 0.4
14/07:00am 5.7 3.3 5.4 98 0.1 W 7 9 4 5 1015.0 1015.0 0.4
14/06:30am 6.0 4.3 5.7 98 0.1 WSW 4 6 2 3 1014.5 1014.5 0.4
14/06:00am 5.4 2.6 5.0 97 0.2 WSW 9 11 5 6 1014.1 1014.1 0.4
14/05:30am 6.0 3.7 5.6 97 0.2 W 7 7 4 4 1014.2 1014.2 0.4
14/05:00am 6.0 3.7 5.6 97 0.2 WNW 7 11 4 6 1014.1 1014.1 0.4
14/04:30am 6.6 4.6 6.3 98 0.1 WSW 6 7 3 4 1014.0 1014.0 0.4
14/04:00am 6.3 4.0 5.9 97 0.2 W 7 9 4 5 1014.1 1014.1 0.4
14/03:30am 6.5 4.3 6.1 97 0.2 W 7 9 4 5 1014.1 1014.1 0.4
14/03:00am 6.2 3.5 5.8 97 0.2 W 9 11 5 6 1014.1 1014.1 0.4
14/02:30am 6.2 3.2 5.8 97 0.2 W 11 13 6 7 1014.4 1014.4 0.4
14/02:00am 6.7 4.5 6.1 96 0.3 WNW 7 9 4 5 1014.7 1014.7 0.4
14/01:30am 7.3 5.4 6.9 97 0.2 W 6 7 3 4 1014.8 1014.8 0.4
14/01:00am 7.0 4.8 6.4 96 0.3 W 7 9 4 5 1014.9 1014.9 0.4
14/12:30am 7.2 5.1 6.6 96 0.3 WSW 7 9 4 5 1015.0 1015.0 0.4
14/12:00am 7.3 4.4 6.7 96 0.3 WSW 11 11 6 6 1014.9 1014.9 0.4
 
Date/Time
CST
Temp
°C
App
Temp
°C
Dew
Point
°C
Rel
Hum
%
Delta-T
°C
Wind Press
QNH
hPa
Press
MSL
hPa
Rain since
9am
mm
Dir  Spd
km/h
Gust
km/h
Spd
kts
Gust
kts
13/11:30pm 8.3 6.1 7.7 96 0.3 W 9 11 5 6 1014.9 1014.9 0.4
13/11:00pm 7.7 4.9 7.1 96 0.3 W 11 13 6 7 1014.9 1014.9 0.4
13/10:30pm 7.9 5.6 7.3 96 0.3 W 9 11 5 6 1015.1 1015.1 0.4
13/10:00pm 8.1 5.4 7.5 96 0.3 W 11 13 6 7 1015.2 1015.2 0.4
13/09:30pm 7.8 5.4 7.1 95 0.3 W 9 11 5 6 1015.3 1015.3 0.4
13/09:00pm 8.4 5.8 7.6 95 0.4 W 11 13 6 7 1015.2 1015.2 0.4
13/08:30pm 8.7 6.1 7.8 94 0.4 W 11 11 6 6 1015.2 1015.2 0.4
13/08:00pm 8.9 6.3 7.8 93 0.5 SW 11 13 6 7 1014.8 1014.8 0.4
13/07:30pm 9.7 6.2 8.6 93 0.5 WSW 17 19 9 10 1014.6 1014.6 0.4
13/07:00pm 9.3 6.4 8.1 92 0.6 WSW 13 15 7 8 1014.3 1014.3 0.4
13/06:30pm 9.8 6.9 8.2 90 0.8 WSW 13 15 7 8 1014.0 1014.0 0.4
13/06:00pm 10.8 8.4 8.7 87 1.0 SW 11 11 6 6 1013.8 1013.8 0.4
13/05:30pm 12.2 9.1 9.0 81 1.6 SSW 15 20 8 11 1013.8 1013.8 0.4
13/05:00pm 13.2 10.7 9.8 80 1.7 SSW 13 19 7 10 1013.6 1013.6 0.4
13/04:30pm 12.9 9.6 9.5 80 1.7 SW 17 20 9 11 1013.5 1013.5 0.4
13/04:00pm 13.9 9.7 9.9 77 2.1 S 22 28 12 15 1013.4 1013.4 0.4
13/03:30pm 14.0 9.0 9.4 74 2.4 SSW 26 33 14 18 1013.3 1013.3 0.4
13/03:00pm 14.1 9.5 9.7 75 2.3 SSW 24 32 13 17 1013.3 1013.3 0.4
13/02:30pm 14.9 10.7 9.9 72 2.6 SSW 22 30 12 16 1013.2 1013.2 0.4
13/02:00pm 15.5 11.2 9.4 67 3.1 SSW 22 33 12 18 1013.1 1013.1 0.4
13/01:30pm 15.2 10.6 9.6 69 2.9 S 24 32 13 17 1013.2 1013.2 0.4
13/01:00pm 15.0 11.5 8.7 66 3.2 SSW 17 22 9 12 1013.3 1013.3 0.4
13/12:30pm 14.1 10.6 10.1 77 2.1 S 19 24 10 13 1013.7 1013.7 0.4
13/12:00pm 14.4 11.4 10.8 79 1.9 SSW 17 24 9 13 1014.0 1014.0 0.4
13/11:30am 13.0 11.2 10.9 87 1.1 S 11 17 6 9 1014.2 1014.2 0.4
13/11:08am 13.1 9.7 10.6 85 1.3 SSW 19 39 10 21 1014.3 1014.3 0.0
13/11:00am 14.0 12.2 10.8 81 1.7 SSW 11 15 6 8 1014.3 1014.3 0.0
13/10:30am 13.6 11.0 10.6 82 1.6 SW 15 19 8 10 1014.3 1014.3 0.0

Other formats

Comma delimited format used in spreadsheet applications
http://www.bom.gov.au/fwo/IDS60801/IDS60801.95807.axf

JavaScript Object Notation format (JSON) in row-major order
http://www.bom.gov.au/fwo/IDS60801/IDS60801.95807.json

Data quality

Most of these data are generated automatically and are frequently updated. Quality checks on data are not normally performed. It is possible for incorrect values to appear. Refer to information at About Latest Weather Observations and please check the disclaimer before using these data.